Route Details

Aircraft Information
Group: Trans-Atlantic Ops
Types: A31F, B744, B763, MD11
Route Data
Distance: 3135nm
Duration: 8h 30m
Origin METAR: EGNX 072350Z 21005KT CAVOK 02/01 Q1037
Dest. METAR: KIAD 072352Z 18004KT 10SM BKN150 OVC200 10/00 A3016 RMK AO2 SLP215 T01000000 10111 20083 56006
Freight Data
(for Feb 8, 2023)
Load Factor:
66%
Manifested Cargo: 144,512lbs
Financial History
Total Freight: 310,876lbs
Average Load: 0lbs/flt
Fuel Used: 465,638lbs
Avg. Fuel Used: 0lbs/flt
Fuel Expense: $225,476
Avg. Fuel Expense: $0
Avg. Fuel Cost: $0/lbs
Total Gross Income: $721,232
Pilot Pay: $716
Total Expenses: $150,762
Total Revenue: $333,682
Average Revenue: $0

Capitol Logistics 549




EGNX
East Midlands Airport
Derby, GB
KIAD
Washington Dulles International Airport
Dulles, US